Time;durP1;ratioP1;P1;durP2;ratioP2;P2;SDS_P1;SDS_P2;PMS_P1;PMS_P2;Temp;Humidity;BMP_temperature;BMP_pressure;BME280_temperature;BME280_humidity;BME280_pressure;Samples;Min_cycle;Max_cycle;Signal;HPM_P1;HPM_P2
2021/04/16 00:01:09;;;;;;;3.13;0.60;;;4.70;99.90;;;3.26;62.07;102389.78;4876979;28;20119;-78
2021/04/16 00:03:31;;;;;;;2.72;0.60;;;4.70;99.90;;;3.22;62.21;102397.56;4879964;28;20095;-77
2021/04/16 00:05:55;;;;;;;1.70;0.50;;;4.70;99.90;;;3.20;62.28;102394.94;4878309;28;20130;-78
2021/04/16 00:08:22;;;;;;;8.63;0.95;;;4.70;99.90;;;3.22;62.61;102382.78;4879208;28;20082;-79
2021/04/16 00:10:50;;;;;;;1.50;0.40;;;4.60;99.90;;;3.17;62.53;102383.59;4879632;28;20115;-78
2021/04/16 00:13:18;;;;;;;2.13;0.50;;;4.60;99.90;;;3.20;62.51;102383.66;4877109;28;20093;-79
2021/04/16 00:15:42;;;;;;;2.25;0.60;;;4.60;99.90;;;3.16;63.27;102382.72;4880165;28;20095;-79
2021/04/16 00:18:07;;;;;;;1.23;0.40;;;4.60;99.90;;;3.27;62.56;102375.91;4879021;28;20454;-79
2021/04/16 00:20:32;;;;;;;1.70;0.70;;;4.70;99.90;;;3.27;62.25;102381.09;4880258;28;20486;-78
2021/04/16 00:22:55;;;;;;;4.43;0.50;;;4.70;99.90;;;3.27;62.51;102378.50;4881414;28;20094;-79
2021/04/16 00:25:22;;;;;;;1.00;0.43;;;4.70;99.90;;;3.26;62.08;102378.47;4878619;28;20100;-77
2021/04/16 00:27:46;;;;;;;1.42;0.43;;;4.70;99.90;;;3.20;62.83;102374.09;4882591;28;20094;-79
2021/04/16 00:30:11;;;;;;;4.38;0.57;;;4.60;99.90;;;3.17;62.54;102375.78;4883454;28;20117;-78
2021/04/16 00:32:34;;;;;;;0.65;0.38;;;4.60;99.90;;;3.17;62.22;102370.56;4876176;28;20094;-77
2021/04/16 00:34:58;;;;;;;2.58;0.60;;;4.60;99.90;;;3.06;63.32;102371.31;4889561;28;20088;-78
2021/04/16 00:37:21;;;;;;;3.67;0.60;;;4.50;99.90;;;3.06;63.06;102368.72;4880049;28;20091;-77
2021/04/16 00:39:44;;;;;;;3.60;0.50;;;4.40;99.90;;;2.91;64.20;102370.28;4882183;28;20084;-78
2021/04/16 00:42:08;;;;;;;1.65;0.60;;;4.40;99.90;;;2.93;63.77;102369.44;4882230;28;20204;-79
2021/04/16 00:44:32;;;;;;;0.93;0.50;;;4.30;99.90;;;2.88;64.02;102368.53;4882618;28;20768;-79
2021/04/16 00:47:01;;;;;;;1.88;0.68;;;4.30;99.90;;;2.82;64.41;102365.88;4877737;28;20099;-79
2021/04/16 00:49:28;;;;;;;1.95;0.55;;;4.30;99.90;;;2.73;64.86;102360.56;4874231;28;20087;-78
2021/04/16 00:51:57;;;;;;;1.30;0.40;;;4.10;99.90;;;2.69;65.18;102363.97;4877898;28;20119;-79
2021/04/16 00:54:24;;;;;;;0.80;0.38;;;4.10;99.90;;;2.61;65.64;102356.06;4880442;28;20120;-79
2021/04/16 00:56:49;;;;;;;1.48;0.60;;;4.00;99.90;;;2.55;66.01;102367.28;4880497;28;20088;-78
2021/04/16 00:59:14;;;;;;;4.35;0.57;;;3.90;99.90;;;2.43;66.38;102354.97;4869509;28;20498;-78
2021/04/16 01:01:38;;;;;;;0.47;0.30;;;3.90;99.90;;;2.51;66.43;102354.22;4878597;28;20087;-77
2021/04/16 01:04:02;;;;;;;2.30;0.40;;;3.90;99.90;;;2.45;66.67;102360.22;4881597;28;20172;-78
2021/04/16 01:06:25;;;;;;;1.85;0.40;;;3.90;99.90;;;2.40;67.15;102356.69;4879507;28;20096;-78
2021/04/16 01:08:49;;;;;;;4.20;0.80;;;3.90;99.90;;;2.42;67.41;102349.78;4880699;28;20167;-79
2021/04/16 01:11:11;;;;;;;5.35;0.73;;;3.90;99.90;;;2.52;66.63;102353.34;4881205;28;20091;-77
2021/04/16 01:13:37;;;;;;;4.22;0.68;;;3.90;99.90;;;2.43;67.33;102348.91;4880277;28;20742;-78
2021/04/16 01:16:03;;;;;;;3.90;0.50;;;3.90;99.90;;;2.34;67.71;102343.59;4884665;28;20530;-79
2021/04/16 01:18:31;;;;;;;3.10;0.43;;;3.80;99.90;;;2.41;67.89;102353.22;4881681;28;20083;-79
2021/04/16 01:20:57;;;;;;;2.22;0.70;;;3.80;99.90;;;2.32;68.15;102347.91;4880755;28;20454;-79
2021/04/16 01:23:35;;;;;;;1.83;0.50;;;3.80;99.90;;;2.32;68.12;102343.56;4878521;28;20179;-78
2021/04/16 01:26:00;;;;;;;2.55;0.63;;;3.80;99.90;;;2.37;68.16;102341.88;4880362;28;20174;-78
2021/04/16 01:28:23;;;;;;;5.50;0.63;;;3.90;99.90;;;2.41;67.65;102345.41;4882651;28;20095;-79
2021/04/16 01:31:00;;;;;;;1.42;0.50;;;3.80;99.90;;;2.33;68.21;102340.09;4881207;28;20087;-78
2021/04/16 01:33:23;;;;;;;5.80;0.75;;;3.80;99.90;;;2.33;68.43;102339.22;4876659;28;20103;-79
2021/04/16 01:35:46;;;;;;;1.35;0.40;;;3.80;99.90;;;2.30;68.09;102340.06;4882035;28;20091;-78
2021/04/16 01:38:09;;;;;;;0.80;0.50;;;3.70;99.90;;;2.22;69.18;102339.09;4880573;28;20236;-78
2021/04/16 01:40:33;;;;;;;4.25;0.63;;;3.70;99.90;;;2.25;68.80;102341.75;4878007;28;20115;-77
2021/04/16 01:42:57;;;;;;;2.13;0.45;;;3.70;99.90;;;2.16;69.12;102337.31;4877587;28;20189;-78
2021/04/16 01:45:26;;;;;;;1.90;0.73;;;3.60;99.90;;;2.16;69.37;102342.50;4881022;28;20122;-78
2021/04/16 01:47:58;;;;;;;2.80;0.60;;;3.60;99.90;;;2.11;69.25;102331.16;4879813;28;20189;-78
2021/04/16 01:50:20;;;;;;;3.13;0.50;;;3.60;99.90;;;2.02;70.24;102328.44;4879710;28;20087;-77
2021/04/16 01:52:43;;;;;;;5.40;0.63;;;3.50;99.90;;;2.08;69.65;102332.84;4878048;28;20095;-79
2021/04/16 01:55:08;;;;;;;2.15;0.63;;;3.50;99.90;;;2.04;70.34;102326.72;4853025;28;20462;-77
2021/04/16 01:57:34;;;;;;;3.70;0.60;;;3.50;99.90;;;2.14;70.09;102325.13;4881149;28;20554;-78
2021/04/16 01:59:58;;;;;;;1.35;0.65;;;3.60;99.90;;;2.05;70.47;102328.44;4878696;28;20087;-77
2021/04/16 02:02:24;;;;;;;0.95;0.55;;;3.50;99.90;;;2.01;70.65;102327.56;4878723;28;20114;-77
2021/04/16 02:04:47;;;;;;;1.65;0.55;;;3.50;99.90;;;2.00;71.23;102324.94;4877894;28;20079;-78
2021/04/16 02:07:11;;;;;;;0.70;0.55;;;3.50;99.90;;;2.09;70.83;102322.44;4877722;28;20092;-78
2021/04/16 02:09:37;;;;;;;4.15;0.60;;;3.50;99.90;;;1.98;71.03;102324.91;4878483;28;20088;-78
2021/04/16 02:12:00;;;;;;;2.10;0.70;;;3.50;99.90;;;1.96;71.11;102328.31;4881818;28;20091;-77
2021/04/16 02:14:28;;;;;;;6.63;1.33;;;3.40;99.90;;;1.95;71.46;102326.59;4880884;28;20095;-80
2021/04/16 02:16:56;;;;;;;2.85;0.45;;;3.40;99.90;;;1.91;71.32;102327.41;4878553;28;20584;-78
2021/04/16 02:19:20;;;;;;;1.83;0.40;;;3.40;99.90;;;1.95;71.73;102332.66;4876194;28;20088;-78
2021/04/16 02:21:43;;;;;;;4.60;0.75;;;3.40;99.90;;;1.94;72.02;102319.63;4879429;28;20102;-78
2021/04/16 02:24:08;;;;;;;2.45;0.88;;;3.40;99.90;;;1.99;71.94;102326.66;4879247;28;20133;-78
2021/04/16 02:26:31;;;;;;;1.85;0.60;;;3.40;99.90;;;1.96;72.06;102325.72;4881626;28;20083;-78
2021/04/16 02:28:53;;;;;;;2.67;0.65;;;3.40;99.90;;;1.96;71.54;102328.31;4879476;28;20428;-79
2021/04/16 02:31:16;;;;;;;1.00;0.45;;;3.50;99.90;;;2.07;71.88;102326.75;4879861;28;20129;-79
2021/04/16 02:33:41;;;;;;;2.67;0.75;;;3.50;99.90;;;2.12;71.35;102330.31;4869031;28;20114;-77
2021/04/16 02:36:06;;;;;;;6.53;0.90;;;3.60;99.90;;;2.13;72.07;102325.97;4880983;28;20099;-77
2021/04/16 02:38:29;;;;;;;4.00;0.40;;;3.60;99.90;;;2.15;71.52;102321.69;4881745;28;20123;-77
2021/04/16 02:40:52;;;;;;;3.70;0.60;;;3.70;99.90;;;2.21;71.95;102327.81;4879141;28;20123;-77
2021/04/16 02:43:14;;;;;;;2.05;0.52;;;3.70;99.90;;;2.23;71.81;102325.25;4882095;28;20091;-77
2021/04/16 02:45:37;;;;;;;5.68;0.90;;;3.70;99.90;;;2.26;72.24;102318.34;4877717;28;20439;-79
2021/04/16 02:48:00;;;;;;;3.53;0.75;;;3.70;99.90;;;2.26;72.29;102315.75;4881674;28;20083;-77
2021/04/16 02:50:29;;;;;;;1.65;0.50;;;3.80;99.90;;;2.38;71.64;102309.00;4878806;28;20092;-78
2021/04/16 02:52:52;;;;;;;5.32;0.77;;;3.80;99.90;;;2.41;71.75;102309.88;4880340;28;20096;-79
2021/04/16 02:55:15;;;;;;;1.40;0.50;;;3.90;99.90;;;2.44;71.86;102316.84;4870035;28;20201;-77
2021/04/16 02:57:38;;;;;;;3.38;0.52;;;3.80;99.90;;;2.39;72.57;102310.72;4878836;28;20095;-78
2021/04/16 03:00:01;;;;;;;1.35;0.60;;;3.90;99.90;;;2.46;72.13;102307.34;4872760;28;22705;-78
2021/04/16 03:02:24;;;;;;;1.38;0.60;;;3.90;99.90;;;2.34;73.05;102309.81;4879557;28;20138;-78
2021/04/16 03:04:47;;;;;;;3.13;0.57;;;3.80;99.90;;;2.36;73.13;102306.38;4878686;28;20116;-78
2021/04/16 03:07:11;;;;;;;7.75;1.10;;;3.90;99.90;;;2.50;72.38;102300.47;4879162;28;20099;-78
2021/04/16 03:09:34;;;;;;;1.27;0.43;;;3.90;99.90;;;2.49;72.00;102299.59;4876706;28;20098;-77
2021/04/16 03:11:56;;;;;;;1.17;0.45;;;3.90;99.90;;;2.45;72.24;102300.41;4880019;28;20091;-78
2021/04/16 03:14:19;;;;;;;2.83;0.77;;;4.00;99.90;;;2.53;72.11;102303.97;4879812;28;22037;-77
2021/04/16 03:16:42;;;;;;;3.20;0.75;;;4.00;99.90;;;2.61;71.09;102304.06;4880585;28;20095;-77
2021/04/16 03:19:10;;;;;;;3.65;0.50;;;4.00;99.90;;;2.57;71.59;102303.16;4877709;28;20170;-79
2021/04/16 03:21:33;;;;;;;6.57;0.75;;;4.00;99.90;;;2.56;71.47;102303.13;4876245;28;20477;-79
2021/04/16 03:23:57;;;;;;;1.60;0.40;;;4.10;99.90;;;2.64;70.95;102301.50;4877992;28;20098;-79
2021/04/16 03:26:21;;;;;;;3.00;0.77;;;4.10;99.90;;;2.62;71.15;102301.47;4880632;28;20494;-78
2021/04/16 03:28:44;;;;;;;0.68;0.40;;;4.10;99.90;;;2.71;70.76;102300.72;4877852;28;20640;-78
2021/04/16 03:31:07;;;;;;;3.00;0.63;;;4.20;99.90;;;2.70;71.00;102309.38;4878192;28;20150;-78
2021/04/16 03:33:30;;;;;;;1.45;0.50;;;4.20;99.90;;;2.75;70.60;102312.03;4877723;28;20098;-78
2021/04/16 03:35:53;;;;;;;3.67;0.40;;;4.20;99.90;;;2.74;71.25;102307.66;4880028;28;20534;-77
2021/04/16 03:38:16;;;;;;;2.25;0.73;;;4.20;99.90;;;2.75;70.67;102312.03;4879851;28;20450;-77
2021/04/16 03:40:40;;;;;;;1.48;0.30;;;4.20;99.90;;;2.75;71.17;102314.63;4878694;28;20087;-78
2021/04/16 03:43:03;;;;;;;6.95;0.65;;;4.20;99.90;;;2.72;71.64;102322.38;4877604;28;20098;-78
2021/04/16 03:45:28;;;;;;;2.20;0.52;;;4.20;99.90;;;2.74;71.82;102312.88;4877248;28;20092;-77
2021/04/16 03:47:51;;;;;;;3.25;0.68;;;4.20;99.90;;;2.74;72.22;102315.47;4878273;28;20472;-79
2021/04/16 03:50:18;;;;;;;3.15;0.70;;;4.20;99.90;;;2.70;72.09;102314.59;4879840;28;20088;-79
2021/04/16 03:52:42;;;;;;;4.45;0.82;;;4.20;99.90;;;2.68;72.29;102311.09;4879166;28;20100;-79
2021/04/16 03:55:06;;;;;;;9.52;0.88;;;4.20;99.90;;;2.67;72.58;102318.00;4882450;28;20180;-78
2021/04/16 03:57:33;;;;;;;3.38;0.60;;;4.10;99.90;;;2.67;72.43;102317.13;4880801;28;20088;-79
2021/04/16 03:59:57;;;;;;;6.80;0.77;;;4.10;99.90;;;2.66;73.34;102313.66;4876498;28;20083;-79
2021/04/16 04:02:20;;;;;;;1.33;0.45;;;4.20;99.90;;;2.73;72.55;102318.94;4891426;28;20201;-79
2021/04/16 04:04:42;;;;;;;4.22;1.00;;;4.20;99.90;;;2.71;72.67;102308.50;4873636;28;20106;-79
2021/04/16 04:07:06;;;;;;;2.50;0.60;;;4.20;99.90;;;2.67;72.66;102311.94;4881254;28;20173;-79
2021/04/16 04:09:28;;;;;;;5.22;0.65;;;4.20;99.90;;;2.72;73.19;102315.47;4881315;28;20095;-78
2021/04/16 04:11:51;;;;;;;1.35;0.90;;;4.20;99.90;;;2.72;72.86;102317.19;4865619;28;20433;-78
2021/04/16 04:14:16;;;;;;;1.02;0.50;;;4.20;99.90;;;2.72;73.04;102315.47;4882792;28;20774;-78
2021/04/16 04:16:51;;;;;;;2.10;0.40;;;4.20;99.90;;;2.78;72.80;102314.66;4882431;28;20119;-79
2021/04/16 04:19:14;;;;;;;6.87;1.00;;;4.30;99.90;;;2.80;73.02;102307.72;4879123;28;20445;-78
2021/04/16 04:21:37;;;;;;;1.00;0.60;;;4.30;99.90;;;2.79;72.92;102313.81;4880516;28;20248;-78
2021/04/16 04:23:59;;;;;;;3.45;0.60;;;4.30;99.90;;;2.79;72.78;102313.81;4859758;28;20095;-77
2021/04/16 04:26:23;;;;;;;3.58;0.68;;;4.30;99.90;;;2.84;72.85;102312.13;4860620;28;20103;-78
2021/04/16 04:28:46;;;;;;;1.42;0.70;;;4.30;99.90;;;2.85;73.13;102317.34;4859934;28;20782;-78
2021/04/16 04:31:10;;;;;;;2.63;0.60;;;4.30;99.90;;;2.79;73.59;102319.00;4859824;28;20527;-80
2021/04/16 04:33:33;;;;;;;4.00;0.95;;;4.30;99.90;;;2.84;73.40;102315.59;4879615;28;20137;-77
2021/04/16 04:35:56;;;;;;;5.63;0.60;;;4.30;99.90;;;2.80;73.15;102323.34;4882283;28;20518;-80
2021/04/16 04:38:19;;;;;;;4.93;1.00;;;4.30;99.90;;;2.87;73.22;102318.25;4872365;28;20101;-79
2021/04/16 04:40:43;;;;;;;2.10;0.60;;;4.40;99.90;;;2.90;73.52;102322.59;4878812;28;20144;-80
2021/04/16 04:43:06;;;;;;;4.88;0.90;;;4.40;99.90;;;2.93;73.24;102320.00;4869851;28;20189;-80
2021/04/16 04:45:29;;;;;;;5.22;0.90;;;4.40;99.90;;;2.96;73.09;102321.78;4887953;28;20093;-79
2021/04/16 04:47:53;;;;;;;2.22;0.82;;;4.40;99.90;;;2.98;73.32;102325.25;4881050;28;20607;-79
2021/04/16 04:50:18;;;;;;;2.70;0.73;;;4.40;99.90;;;2.99;73.56;102317.47;4881787;28;20175;-79
2021/04/16 04:52:42;;;;;;;10.40;0.90;;;4.50;99.90;;;3.02;73.33;102327.03;4881278;28;20077;-79
2021/04/16 04:55:11;;;;;;;5.67;0.80;;;4.50;99.90;;;3.05;73.35;102329.69;4880314;28;20099;-78
2021/04/16 04:57:34;;;;;;;5.03;0.93;;;4.50;99.90;;;3.07;73.81;102330.59;4880391;28;20135;-79
2021/04/16 04:59:57;;;;;;;3.50;0.63;;;4.60;99.90;;;3.08;74.02;102322.78;4879759;28;20095;-79
2021/04/16 05:02:23;;;;;;;2.83;0.90;;;4.60;99.90;;;3.15;73.23;102328.91;4879174;28;20127;-78
2021/04/16 05:04:47;;;;;;;7.45;1.33;;;4.60;99.90;;;3.17;73.05;102336.75;4880525;28;20156;-79
2021/04/16 05:07:10;;;;;;;3.35;0.88;;;4.70;99.90;;;3.22;72.66;102327.25;4877935;28;20146;-79
2021/04/16 05:09:33;;;;;;;3.63;0.70;;;4.70;99.90;;;3.24;72.50;102330.72;4881703;28;20573;-76
2021/04/16 05:11:56;;;;;;;2.22;0.55;;;4.70;99.90;;;3.26;72.51;102332.50;4882615;28;20133;-77
2021/04/16 05:14:19;;;;;;;9.02;1.80;;;4.70;99.90;;;3.30;71.67;102333.38;4880842;28;20451;-79
2021/04/16 05:16:42;;;;;;;2.88;0.57;;;4.80;99.90;;;3.32;72.03;102325.59;4881273;28;20106;-78
2021/04/16 05:19:06;;;;;;;1.75;0.45;;;4.80;99.90;;;3.39;71.41;102328.28;4876267;28;20221;-79
2021/04/16 05:21:30;;;;;;;3.53;0.75;;;4.90;99.90;;;3.45;70.80;102333.53;4883034;28;20091;-80
2021/04/16 05:23:52;;;;;;;4.03;0.75;;;4.90;99.90;;;3.45;71.13;102332.66;4881954;28;20079;-77
2021/04/16 05:26:16;;;;;;;2.88;0.75;;;4.90;99.90;;;3.44;71.14;102334.41;4880215;28;20538;-78
2021/04/16 05:28:39;;;;;;;0.40;0.32;;;4.90;99.90;;;3.54;70.34;102335.34;4878939;28;20088;-77
2021/04/16 05:31:02;;;;;;;0.93;0.30;;;5.00;99.90;;;3.53;69.96;102333.59;4883408;28;20099;-78
2021/04/16 05:33:25;;;;;;;4.63;0.80;;;5.00;99.90;;;3.59;70.39;102330.19;4882250;28;20091;-77
2021/04/16 05:35:48;;;;;;;5.88;0.70;;;;;;;3.57;70.91;102324.94;4881528;28;20088;-78
2021/04/16 05:38:12;;;;;;;3.13;0.68;;;;;;;3.64;69.85;102331.09;4879074;28;20449;-78
2021/04/16 05:40:35;;;;;;;5.05;1.20;;;;;;;3.63;69.38;102331.97;4880379;28;20092;-78
2021/04/16 05:42:58;;;;;;;3.30;0.60;;;5.10;99.90;;;3.68;69.96;102327.66;4880768;28;20481;-77
2021/04/16 05:45:22;;;;;;;1.95;0.60;;;5.10;99.90;;;3.65;69.55;102327.59;4879331;28;20450;-77
2021/04/16 05:47:45;;;;;;;2.50;0.55;;;5.20;99.90;;;3.71;69.67;102325.03;4880483;28;20082;-78
2021/04/16 05:50:11;;;;;;;13.05;1.13;;;5.20;99.90;;;3.74;70.52;102330.31;4880354;28;20138;-80
2021/04/16 05:52:35;;;;;;;4.05;0.68;;;5.20;99.90;;;3.73;70.94;102338.97;4879870;28;20509;-80
2021/04/16 05:54:58;;;;;;;2.88;0.70;;;5.20;99.90;;;3.76;71.22;102335.50;4878123;28;20087;-78
2021/04/16 05:57:21;;;;;;;2.63;0.63;;;5.20;99.90;;;3.75;70.68;102332.03;4880080;28;20099;-79
2021/04/16 05:59:45;;;;;;;2.55;0.80;;;5.20;99.90;;;3.79;71.40;102333.81;4879274;28;20083;-79
2021/04/16 06:02:26;;;;;;;10.00;1.00;;;5.30;99.90;;;3.85;71.44;102335.59;4878668;28;20105;-80
2021/04/16 06:04:49;;;;;;;7.57;0.63;;;;;;;3.75;71.53;102333.78;4878898;28;20087;-78
2021/04/16 06:07:13;;;;;;;3.38;0.47;;;5.30;99.90;;;3.78;71.30;102342.50;4875899;28;20084;-77
2021/04/16 06:09:36;;;;;;;4.68;0.70;;;5.30;99.90;;;3.73;70.70;102338.09;4880447;28;20095;-79
2021/04/16 06:12:00;;;;;;;6.82;0.70;;;5.30;99.90;;;3.79;70.93;102335.53;4878844;28;20542;-78
2021/04/16 06:14:23;;;;;;;14.77;1.40;;;5.20;99.90;;;3.76;71.19;102333.78;4879272;28;20581;-77
2021/04/16 06:16:46;;;;;;;6.82;0.60;;;5.20;99.90;;;3.77;70.98;102337.25;4878806;28;20080;-77
2021/04/16 06:19:09;;;;;;;2.70;0.60;;;5.20;99.90;;;3.76;71.56;102328.56;4879613;28;20087;-78
2021/04/16 06:21:31;;;;;;;3.75;0.68;;;5.30;99.90;;;3.78;70.98;102337.28;4879843;28;20091;-77
2021/04/16 06:23:55;;;;;;;5.60;1.10;;;5.30;99.90;;;3.82;70.37;102328.63;4882953;28;20122;-78
2021/04/16 06:26:18;;;;;;;3.88;0.75;;;5.30;99.90;;;3.87;70.16;102339.94;4879431;28;20142;-78
2021/04/16 06:28:41;;;;;;;8.20;1.13;;;5.30;99.90;;;3.87;70.30;102332.13;4880003;28;20145;-77
2021/04/16 06:31:04;;;;;;;6.85;1.02;;;5.40;99.90;;;3.97;70.58;102327.81;4878147;28;20102;-79
2021/04/16 06:33:30;;;;;;;6.60;0.70;;;5.50;99.90;;;4.13;70.18;102326.22;4877877;28;20656;-79
2021/04/16 06:35:56;;;;;;;5.28;1.00;;;5.60;99.90;;;4.13;69.85;102326.22;4879907;28;20128;-79
2021/04/16 06:38:22;;;;;;;2.17;1.15;;;5.80;99.90;;;4.44;69.49;102329.81;4879136;28;20600;-78
2021/04/16 06:40:48;;;;;;;5.28;0.70;;;6.10;99.90;;;4.76;67.10;102336.06;4881908;28;20097;-77
2021/04/16 06:43:11;;;;;;;5.28;0.75;;;6.50;99.90;;;5.16;66.06;102336.13;4877840;28;20089;-78
2021/04/16 06:45:35;;;;;;;3.75;0.80;;;6.70;99.90;;;5.50;65.50;102331.81;4878266;28;20598;-77
2021/04/16 06:48:01;;;;;;;2.33;0.80;;;7.20;99.90;;;5.88;63.00;102331.81;4859036;28;20098;-79
2021/04/16 06:50:29;;;;;;;2.97;0.98;;;7.30;99.90;;;5.92;62.58;102328.31;4880266;28;20088;-80
2021/04/16 06:53:01;;;;;;;3.42;1.00;;;7.30;99.90;;;5.67;62.43;102330.06;4880744;28;20432;-79
2021/04/16 06:55:30;;;;;;;5.50;0.60;;;6.90;99.90;;;5.17;64.77;102341.38;4877854;28;20089;-80
2021/04/16 06:58:00;;;;;;;3.08;0.68;;;6.80;99.90;;;5.17;65.12;102345.72;4856344;28;20112;-81
2021/04/16 07:00:37;;;;;;;3.42;0.65;;;6.70;99.90;;;4.90;66.32;102335.22;4879742;28;20093;-78
2021/04/16 07:03:08;;;;;;;2.63;0.80;;;6.50;99.90;;;4.65;66.78;102334.28;4878711;28;20562;-79
2021/04/16 07:05:35;;;;;;;3.20;0.73;;;6.20;99.90;;;4.71;67.10;102334.31;4877400;28;20081;-79
2021/04/16 07:07:59;;;;;;;2.05;1.05;;;6.20;99.90;;;4.77;66.99;102335.19;4875775;28;20086;-79
2021/04/16 07:10:26;;;;;;;5.47;0.68;;;6.20;99.90;;;4.71;68.01;102339.50;4872236;28;20134;-76
2021/04/16 07:12:51;;;;;;;6.47;0.88;;;6.10;99.90;;;4.58;66.60;102336.84;4861312;28;20448;-76
2021/04/16 07:15:20;;;;;;;4.15;1.15;;;6.00;99.90;;;4.32;67.64;102335.88;4878101;28;20089;-78
2021/04/16 07:17:47;;;;;;;1.70;0.73;;;6.00;99.90;;;4.40;67.34;102330.69;4878853;28;20077;-79
2021/04/16 07:20:19;;;;;;;6.90;0.70;;;6.00;99.90;;;4.43;67.42;102340.28;4878796;28;20083;-80
2021/04/16 07:22:45;;;;;;;5.25;0.57;;;6.00;99.90;;;4.44;67.23;102323.75;4878902;28;20091;-78
2021/04/16 07:25:23;;;;;;;;;;;6.00;99.90;;;4.55;66.78;102331.63;4879878;28;20093;-79
2021/04/16 07:27:48;;;;;;;4.50;0.45;;;6.00;99.90;;;4.68;66.99;102329.06;4881013;28;19969;-78
2021/04/16 07:30:33;;;;;;;1.40;0.73;;;6.10;99.90;;;4.40;66.55;102332.41;4882657;28;20102;-79
2021/04/16 07:32:59;;;;;;;3.13;0.65;;;6.00;99.90;;;4.59;66.45;102325.56;4862218;28;20559;-80
2021/04/16 07:35:31;;;;;;;3.00;0.68;;;6.10;99.90;;;4.62;66.03;102323.84;4880856;28;20080;-82
2021/04/16 07:38:04;;;;;;;3.40;0.65;;;6.30;99.90;;;4.76;65.14;102330.84;4884401;28;20110;-78
2021/04/16 07:40:30;;;;;;;7.97;0.40;;;6.30;99.90;;;4.88;65.35;102331.75;4857065;28;20102;-79
2021/04/16 07:42:54;;;;;;;3.40;0.52;;;6.40;99.90;;;4.90;64.94;102327.41;4880724;28;20086;-80
2021/04/16 07:45:42;;;;;;;8.20;1.23;;;6.40;99.90;;;4.95;65.85;102335.25;4883005;28;20092;-79
2021/04/16 07:48:36;;;;;;;1.73;0.50;;;6.50;99.90;;;5.12;66.56;102341.38;4880023;28;20086;-79
2021/04/16 07:51:03;;;;;;;3.65;0.93;;;6.50;99.90;;;5.13;64.12;102331.78;4880679;28;20141;-79
2021/04/16 07:53:30;;;;;;;12.30;0.95;;;6.70;99.90;;;5.20;65.50;102335.28;4881533;28;20168;-78
2021/04/16 07:56:13;;;;;;;3.60;1.33;;;6.80;99.90;;;5.47;64.22;102331.84;4879736;28;20499;-79
2021/04/16 07:58:36;;;;;;;3.72;0.93;;;6.70;99.90;;;5.18;64.06;102337.88;4879176;28;20084;-78
2021/04/16 08:01:10;;;;;;;3.08;0.65;;;6.70;99.90;;;5.33;64.25;102335.31;4879728;28;20143;-79
2021/04/16 08:03:49;;;;;;;6.55;0.88;;;6.60;99.90;;;5.09;66.81;102343.94;4880503;28;20093;-78
2021/04/16 08:06:28;;;;;;;1.17;0.50;;;6.70;99.90;;;5.13;65.84;102343.09;4880596;28;20115;-81
2021/04/16 08:08:51;;;;;;;3.22;0.90;;;6.90;99.90;;;5.34;63.01;102331.81;4863504;28;20575;-78
2021/04/16 08:11:19;;;;;;;5.10;0.80;;;7.10;99.90;;;6.12;62.14;102335.28;4880661;28;20510;-78
2021/04/16 08:13:56;;;;;;;5.95;0.80;;;8.50;99.90;;;6.30;61.65;102336.97;4884490;28;20586;-78
2021/04/16 08:16:23;;;;;;;2.50;0.60;;;7.40;99.90;;;5.95;62.54;102330.06;4884395;28;20097;-80
2021/04/16 08:19:03;;;;;;;2.72;0.50;;;7.40;99.90;;;5.60;62.68;102338.78;4880657;28;20085;-77
2021/04/16 08:21:28;;;;;;;7.57;0.90;;;7.40;99.90;;;6.11;61.86;102333.53;4869759;28;20091;-78
2021/04/16 08:23:56;;;;;;;2.65;1.00;;;7.60;99.90;;;6.35;62.56;102338.69;4861433;28;20081;-78
2021/04/16 08:26:24;;;;;;;2.05;0.70;;;7.70;99.90;;;6.39;60.13;102328.22;4875384;28;20085;-78
2021/04/16 08:28:53;;;;;;;3.67;0.60;;;7.50;99.90;;;5.98;60.48;102337.03;4879745;28;20083;-77
2021/04/16 08:31:25;;;;;;;1.80;0.80;;;7.20;99.90;;;5.77;63.10;102338.78;4880862;28;20109;-79
2021/04/16 08:33:54;;;;;;;5.03;1.08;;;7.60;99.90;;;7.08;59.41;102339.22;4880092;28;20093;-80
2021/04/16 08:36:26;;;;;;;4.18;0.80;;;8.30;99.90;;;7.54;58.26;102333.66;4879661;28;20077;-79
2021/04/16 08:38:58;;;;;;;4.88;0.60;;;8.30;99.90;;;7.24;58.82;102331.28;4880330;28;20164;-79
2021/04/16 08:41:21;;;;;;;2.65;0.60;;;8.40;99.90;;;7.21;56.23;102331.28;4879958;28;20117;-78
2021/04/16 08:43:49;;;;;;;4.05;0.73;;;8.50;99.90;;;7.19;54.58;102331.28;4877637;28;20084;-79
2021/04/16 08:46:31;;;;;;;7.28;0.73;;;8.60;99.90;;;7.53;55.24;102324.03;4879401;28;20077;-79
2021/04/16 08:48:58;;;;;;;2.63;0.60;;;8.60;99.90;;;6.63;55.60;102341.22;4881883;28;20439;-77
2021/04/16 08:51:27;;;;;;;2.25;0.50;;;8.30;99.90;;;7.32;54.30;102326.81;4872811;28;20107;-79
2021/04/16 08:53:51;;;;;;;1.50;0.40;;;8.60;99.90;;;7.34;53.39;102325.06;4879785;28;20444;-79
2021/04/16 08:56:22;;;;;;;3.75;0.95;;;8.80;99.90;;;7.79;53.83;102329.03;4881138;28;20085;-79
2021/04/16 08:58:46;;;;;;;6.72;1.08;;;8.80;99.90;;;7.56;54.94;102324.03;4880218;28;20105;-78
2021/04/16 09:01:45;;;;;;;1.95;0.40;;;8.80;99.90;;;7.47;53.31;102326.69;4858584;28;20096;-79
2021/04/16 09:04:44;;;;;;;3.03;0.57;;;8.60;99.90;;;7.33;54.64;102324.19;4833478;28;20103;-78
2021/04/16 09:07:42;;;;;;;6.22;0.90;;;8.30;99.90;;;6.73;56.97;102323.69;4832659;28;20245;-77
2021/04/16 09:10:53;;;;;;;2.10;0.50;;;8.20;99.90;;;6.97;58.76;102330.56;4839093;28;20163;-79
2021/04/16 09:14:01;;;;;;;3.22;0.70;;;8.80;99.90;;;7.09;57.73;102327.88;4834303;28;20095;-78
2021/04/16 09:17:13;;;;;;;1.92;0.63;;;8.80;99.90;;;7.92;55.21;102324.53;4823039;28;20533;-78
2021/04/16 09:20:35;;;;;;;2.15;0.63;;;9.10;99.90;;;7.59;58.26;102323.13;4821717;28;24902;-79
2021/04/16 09:27:53;;;;;;;12.63;0.80;;;8.90;99.90;;;7.70;55.96;102312.53;4818442;28;20843;-78
2021/04/16 09:39:12;;;;;;;7.45;0.85;;;8.80;99.90;;;7.50;55.03;102310.97;4815502;28;20145;-79
2021/04/16 09:46:06;;;;;;;4.38;0.90;;;8.70;99.90;;;7.21;55.77;102320.78;4823206;28;20083;-78
2021/04/16 09:49:51;;;;;;;4.07;0.88;;;8.60;99.90;;;7.39;55.45;102307.56;4797409;28;20096;-78
2021/04/16 09:53:24;;;;;;;2.88;0.80;;;8.60;99.90;;;7.52;58.01;102301.34;4811466;28;20077;-78
2021/04/16 09:56:16;;;;;;;3.75;0.80;;;8.90;99.90;;;7.79;55.80;102294.09;4811882;28;20426;-78
2021/04/16 10:03:08;;;;;;;4.85;0.98;;;9.50;99.90;;;8.33;53.96;102296.13;4805425;28;26233;-80
2021/04/16 10:05:41;;;;;;;4.00;0.70;;;9.70;99.90;;;7.62;53.90;102304.72;4867455;28;20469;-78
2021/04/16 12:37:59;;;;;;;3.80;0.80;;;8.40;99.90;;;6.97;49.37;102273.78;4884617;28;20555;-81
2021/04/16 12:40:25;;;;;;;4.55;0.70;;;8.40;99.90;;;7.05;48.67;102276.38;4884743;28;20149;-78
2021/04/16 12:42:49;;;;;;;1.83;0.52;;;8.60;99.90;;;6.98;49.48;102277.31;4886256;28;20092;-78
2021/04/16 12:45:15;;;;;;;4.43;0.60;;;8.70;99.90;;;7.33;50.09;102269.16;4885415;28;21936;-77
2021/04/16 12:47:38;;;;;;;2.17;0.50;;;8.70;99.90;;;7.17;48.75;102276.28;4884924;28;20082;-77
2021/04/16 12:50:05;;;;;;;3.50;0.70;;;8.40;99.90;;;6.77;50.28;102278.31;4886918;28;20096;-78
2021/04/16 12:52:29;;;;;;;2.08;0.70;;;8.30;99.90;;;6.90;51.55;102277.34;4885419;28;20089;-78
2021/04/16 12:54:54;;;;;;;1.35;0.60;;;8.10;99.90;;;6.73;51.86;102274.81;4885351;28;20103;-79
2021/04/16 12:57:21;;;;;;;3.00;0.75;;;8.10;99.90;;;6.63;52.36;102273.16;4885493;28;20105;-80
2021/04/16 12:59:44;;;;;;;10.55;0.80;;;8.10;99.90;;;6.69;50.50;102273.09;4886003;28;20076;-78
2021/04/16 13:02:18;;;;;;;5.25;0.73;;;8.00;99.90;;;6.50;52.48;102271.47;4886180;28;20575;-79
2021/04/16 13:04:43;;;;;;;5.60;0.93;;;8.20;99.90;;;6.87;49.97;102263.41;4886385;28;20088;-78
2021/04/16 13:07:06;;;;;;;2.10;0.47;;;8.30;99.90;;;6.91;50.05;102265.13;4884267;28;20089;-78
2021/04/16 13:09:30;;;;;;;2.53;0.75;;;8.40;99.90;;;6.78;50.35;102266.94;4885406;28;20088;-78
2021/04/16 13:11:53;;;;;;;2.70;0.88;;;;;;;6.96;52.02;102263.34;4886376;28;20083;-78
2021/04/16 13:14:17;;;;;;;5.60;1.10;;;8.30;99.90;;;6.68;50.31;102262.66;4885956;28;20083;-79
2021/04/16 13:16:40;;;;;;;8.13;0.98;;;8.10;99.90;;;6.63;50.26;102267.94;4883619;28;20436;-80
2021/04/16 13:19:08;;;;;;;8.43;1.05;;;7.90;99.90;;;6.38;51.96;102271.53;4883066;28;20150;-82
2021/04/16 13:21:36;;;;;;;9.75;0.88;;;7.80;99.90;;;6.36;52.81;102263.69;4883384;28;20084;-79